createdAt,value
2018-12-23T00:00:35.061Z,3.27
2018-12-23T00:03:02.527Z,3.95
2018-12-23T00:05:29.960Z,3.37
2018-12-23T00:07:57.411Z,3.47
2018-12-23T00:10:24.905Z,2.98
2018-12-23T00:12:52.363Z,1.90
2018-12-23T00:15:20.052Z,1.95
2018-12-23T00:17:47.500Z,1.98
2018-12-23T00:20:14.960Z,1.50
2018-12-23T00:22:42.411Z,2.95
2018-12-23T00:25:09.872Z,2.77
2018-12-23T00:27:37.300Z,2.37
2018-12-23T00:30:06.661Z,2.02
2018-12-23T00:32:34.098Z,5.28
2018-12-23T00:35:01.615Z,2.92
2018-12-23T00:37:29.089Z,1.95
2018-12-23T00:39:56.591Z,3.45
2018-12-23T00:42:24.058Z,3.67
2018-12-23T00:44:51.549Z,1.90
2018-12-23T00:47:19.037Z,4.85
2018-12-23T00:49:46.580Z,3.42
2018-12-23T00:52:13.999Z,2.65
2018-12-23T00:54:41.441Z,1.60
2018-12-23T00:57:08.891Z,6.35
2018-12-23T00:59:36.346Z,3.85
2018-12-23T01:02:03.871Z,5.20
2018-12-23T01:04:31.328Z,3.33
2018-12-23T01:06:58.796Z,2.20
2018-12-23T01:09:26.280Z,4.35
2018-12-23T01:11:53.775Z,3.52
2018-12-23T01:14:21.250Z,2.85
2018-12-23T01:16:48.690Z,4.42
2018-12-23T01:19:16.125Z,2.60
2018-12-23T01:21:43.565Z,1.98
2018-12-23T01:24:11.049Z,3.15
2018-12-23T01:26:38.488Z,4.12
2018-12-23T01:29:05.956Z,2.45
2018-12-23T01:31:33.413Z,2.75
2018-12-23T01:34:00.862Z,4.95
2018-12-23T01:36:28.504Z,1.60
2018-12-23T01:38:55.948Z,5.40
2018-12-23T01:41:23.445Z,4.20
2018-12-23T01:43:50.884Z,3.22
2018-12-23T01:46:18.332Z,2.37
2018-12-23T01:48:45.904Z,2.80
2018-12-23T01:51:13.354Z,3.25
2018-12-23T01:53:40.814Z,1.07
2018-12-23T01:56:08.265Z,3.65
2018-12-23T01:58:35.712Z,3.22
2018-12-23T02:01:03.201Z,1.75
2018-12-23T02:03:30.693Z,5.35
2018-12-23T02:05:58.149Z,2.55
2018-12-23T02:08:25.605Z,1.60
2018-12-23T02:10:53.039Z,3.22
2018-12-23T02:13:20.476Z,2.33
2018-12-23T02:15:48.008Z,3.45
2018-12-23T02:18:15.501Z,3.45
2018-12-23T02:20:42.948Z,3.87
2018-12-23T02:23:10.392Z,4.17
2018-12-23T02:25:37.874Z,1.57
2018-12-23T02:28:05.326Z,4.08
2018-12-23T02:30:32.775Z,6.70
2018-12-23T02:33:00.240Z,2.05
2018-12-23T02:35:27.703Z,10.05
2018-12-23T02:37:55.194Z,7.87
2018-12-23T02:40:22.756Z,4.28
2018-12-23T02:42:50.334Z,2.70
2018-12-23T02:45:17.797Z,8.75
2018-12-23T02:47:45.342Z,3.55
2018-12-23T02:50:12.780Z,2.62
2018-12-23T02:52:40.239Z,2.67
2018-12-23T02:55:07.724Z,4.05
2018-12-23T02:57:35.174Z,3.27
2018-12-23T03:00:02.717Z,2.10
2018-12-23T03:02:30.352Z,3.98
2018-12-23T03:04:57.827Z,1.70
2018-12-23T03:07:25.365Z,3.10
2018-12-23T03:09:52.805Z,5.70
2018-12-23T03:12:20.261Z,1.50
2018-12-23T03:14:47.761Z,1.60
2018-12-23T03:17:15.215Z,1.72
2018-12-23T03:19:42.651Z,5.42
2018-12-23T03:22:10.097Z,3.92
2018-12-23T03:24:37.539Z,5.55
2018-12-23T03:27:05.020Z,5.03
2018-12-23T03:29:32.500Z,1.95
2018-12-23T03:32:00.003Z,3.75
2018-12-23T03:34:27.447Z,5.87
2018-12-23T03:36:54.933Z,5.75
2018-12-23T03:39:22.371Z,1.90
2018-12-23T03:41:49.853Z,8.33
2018-12-23T03:44:17.367Z,3.62
2018-12-23T03:46:44.812Z,2.25
2018-12-23T03:49:12.324Z,3.83
2018-12-23T03:51:39.814Z,2.52
2018-12-23T03:54:07.273Z,3.22
2018-12-23T03:56:34.728Z,6.78
2018-12-23T03:59:02.271Z,4.25
2018-12-23T04:01:29.710Z,2.52
2018-12-23T04:03:57.151Z,5.40
2018-12-23T04:06:25.111Z,10.35
2018-12-23T04:08:52.709Z,3.12
2018-12-23T04:11:20.196Z,4.97
2018-12-23T04:13:47.694Z,4.55
2018-12-23T04:16:15.230Z,7.12
2018-12-23T04:18:42.695Z,4.22
2018-12-23T04:21:10.149Z,3.25
2018-12-23T04:23:37.618Z,2.33
2018-12-23T04:26:05.070Z,6.75
2018-12-23T04:28:32.507Z,3.00
2018-12-23T04:30:59.965Z,5.45
2018-12-23T04:33:27.407Z,2.35
2018-12-23T04:35:54.859Z,3.42
2018-12-23T04:38:22.320Z,4.90
2018-12-23T04:40:49.802Z,4.87
2018-12-23T04:43:17.274Z,3.83
2018-12-23T04:45:44.715Z,1.75
2018-12-23T04:48:12.194Z,2.20
2018-12-23T04:50:39.754Z,4.83
2018-12-23T04:53:07.220Z,1.60
2018-12-23T04:55:34.680Z,2.65
2018-12-23T04:58:02.133Z,5.62
2018-12-23T05:00:29.576Z,1.30
2018-12-23T05:02:57.008Z,5.75
2018-12-23T05:05:24.467Z,3.37
2018-12-23T05:07:51.931Z,3.80
2018-12-23T05:10:19.416Z,4.50
2018-12-23T05:12:46.885Z,1.37
2018-12-23T05:15:14.333Z,4.53
2018-12-23T05:17:41.793Z,2.20
2018-12-23T05:20:09.256Z,3.30
2018-12-23T05:22:36.709Z,3.95
2018-12-23T05:25:04.345Z,4.72
2018-12-23T05:27:31.779Z,5.05
2018-12-23T05:29:59.228Z,1.82
2018-12-23T05:32:26.736Z,1.72
2018-12-23T05:34:54.185Z,5.17
2018-12-23T05:37:21.657Z,3.27
2018-12-23T05:39:49.150Z,1.40
2018-12-23T05:42:16.629Z,4.65
2018-12-23T05:44:44.103Z,3.00
2018-12-23T05:47:11.571Z,2.20
2018-12-23T05:49:39.017Z,3.20
2018-12-23T05:52:06.505Z,2.75
2018-12-23T05:54:34.031Z,4.37
2018-12-23T05:57:01.469Z,1.35
2018-12-23T05:59:28.938Z,6.25
2018-12-23T06:01:56.390Z,1.70
2018-12-23T06:04:23.829Z,2.55
2018-12-23T06:06:51.348Z,2.00
2018-12-23T06:09:18.801Z,2.17
2018-12-23T06:11:46.305Z,3.22
2018-12-23T06:14:13.942Z,3.40
2018-12-23T06:16:41.440Z,3.02
2018-12-23T06:19:08.920Z,3.35
2018-12-23T06:21:36.480Z,3.02
2018-12-23T06:24:03.947Z,1.35
2018-12-23T06:26:31.392Z,3.00
2018-12-23T06:28:58.867Z,5.75
2018-12-23T06:31:26.309Z,4.35
2018-12-23T06:33:53.758Z,2.35
2018-12-23T06:36:21.447Z,3.52
2018-12-23T06:38:48.881Z,6.00
2018-12-23T06:41:16.361Z,4.80
2018-12-23T06:43:43.792Z,7.62
2018-12-23T06:46:11.287Z,2.35
2018-12-23T06:48:38.708Z,1.72
2018-12-23T06:51:06.169Z,3.65
2018-12-23T06:53:33.615Z,5.42
2018-12-23T06:56:01.153Z,4.70
2018-12-23T06:58:28.601Z,2.40
2018-12-23T07:00:56.088Z,0.93
2018-12-23T07:03:23.529Z,1.10
2018-12-23T07:05:50.974Z,3.90
2018-12-23T07:08:18.425Z,2.40
2018-12-23T07:10:45.935Z,1.30
2018-12-23T07:13:13.396Z,2.92
2018-12-23T07:15:40.853Z,1.98
2018-12-23T07:18:08.299Z,1.80
2018-12-23T07:20:35.772Z,2.30
2018-12-23T07:23:03.223Z,2.65
2018-12-23T07:25:30.699Z,2.12
2018-12-23T07:27:58.141Z,1.50
2018-12-23T07:30:25.597Z,1.80
2018-12-23T07:32:53.050Z,2.70
2018-12-23T07:35:20.484Z,3.10
2018-12-23T07:37:47.966Z,5.45
2018-12-23T07:40:15.428Z,5.35
2018-12-23T07:42:42.884Z,1.72
2018-12-23T07:45:10.380Z,5.95
2018-12-23T07:47:37.817Z,2.95
2018-12-23T07:50:05.647Z,3.17
2018-12-23T07:52:33.171Z,3.87
2018-12-23T07:55:00.640Z,4.28
2018-12-23T07:57:28.132Z,2.92
2018-12-23T07:59:55.575Z,4.40
2018-12-23T08:02:23.053Z,4.35
2018-12-23T08:04:50.534Z,3.22
2018-12-23T08:07:17.978Z,4.00
2018-12-23T08:09:45.432Z,3.65
2018-12-23T08:12:12.923Z,2.67
2018-12-23T08:14:40.383Z,5.87
2018-12-23T08:17:07.863Z,3.95
2018-12-23T08:19:35.426Z,3.37
2018-12-23T08:22:02.930Z,3.55
2018-12-23T08:24:30.594Z,2.37
2018-12-23T08:26:58.038Z,2.90
2018-12-23T08:29:25.511Z,3.15
2018-12-23T08:31:53.137Z,4.75
2018-12-23T08:34:20.595Z,2.17
2018-12-23T08:36:48.035Z,3.22
2018-12-23T08:39:15.517Z,6.28
2018-12-23T08:41:43.007Z,6.37
2018-12-23T08:44:10.463Z,5.80
2018-12-23T08:46:39.239Z,5.67
2018-12-23T08:49:07.064Z,4.25
2018-12-23T08:51:34.517Z,6.20
2018-12-23T08:54:01.981Z,10.48
2018-12-23T08:56:29.485Z,9.13
2018-12-23T08:58:56.923Z,2.90
2018-12-23T09:01:24.404Z,5.67
2018-12-23T09:03:51.895Z,6.97
2018-12-23T09:06:19.362Z,5.42
2018-12-23T09:08:46.851Z,7.37
2018-12-23T09:11:14.290Z,5.33
2018-12-23T09:13:41.773Z,6.67
2018-12-23T09:16:09.744Z,3.90
2018-12-23T09:18:37.199Z,7.55
2018-12-23T09:21:04.634Z,4.65
2018-12-23T09:23:32.095Z,3.60
2018-12-23T09:25:59.561Z,3.95
2018-12-23T09:28:27.044Z,6.47
2018-12-23T09:30:54.490Z,8.25
2018-12-23T09:33:21.985Z,8.15
2018-12-23T09:35:49.437Z,6.42
2018-12-23T09:38:16.893Z,6.22
2018-12-23T09:40:44.346Z,6.72
2018-12-23T09:43:11.908Z,8.25
2018-12-23T09:45:39.367Z,7.47
2018-12-23T09:48:06.827Z,6.08
2018-12-23T09:50:34.299Z,6.75
2018-12-23T09:53:01.801Z,7.62
2018-12-23T09:55:29.239Z,9.23
2018-12-23T09:57:56.694Z,5.12
2018-12-23T10:00:24.178Z,10.60
2018-12-23T10:02:51.640Z,11.65
2018-12-23T10:05:19.128Z,4.35
2018-12-23T10:07:46.597Z,5.33
2018-12-23T10:10:14.041Z,9.13
2018-12-23T10:12:41.520Z,9.98
2018-12-23T10:15:08.983Z,10.35
2018-12-23T10:17:36.457Z,8.40
2018-12-23T10:20:05.933Z,4.80
2018-12-23T10:22:33.373Z,8.53
2018-12-23T10:25:00.855Z,3.20
2018-12-23T10:27:28.423Z,6.60
2018-12-23T10:29:55.885Z,9.48
2018-12-23T10:32:23.340Z,8.63
2018-12-23T10:34:50.813Z,7.10
2018-12-23T10:37:18.253Z,7.30
2018-12-23T10:39:45.695Z,6.65
2018-12-23T10:42:13.180Z,3.45
2018-12-23T10:44:40.688Z,8.40
2018-12-23T10:47:08.125Z,9.33
2018-12-23T10:49:35.618Z,7.50
2018-12-23T10:52:03.096Z,8.68
2018-12-23T10:54:30.620Z,5.90
2018-12-23T10:56:58.123Z,7.47
2018-12-23T10:59:25.578Z,6.42
2018-12-23T11:01:53.053Z,8.60
2018-12-23T11:04:20.511Z,9.20
2018-12-23T11:06:47.957Z,10.95
2018-12-23T11:09:15.484Z,9.50
2018-12-23T11:11:42.933Z,6.90
2018-12-23T11:14:10.437Z,9.90
2018-12-23T11:16:37.920Z,11.68
2018-12-23T11:19:05.425Z,6.05
2018-12-23T11:21:32.876Z,8.15
2018-12-23T11:24:00.348Z,7.25
2018-12-23T11:26:27.819Z,4.78
2018-12-23T11:28:55.284Z,7.05
2018-12-23T11:31:22.754Z,9.55
2018-12-23T11:33:50.320Z,7.47
2018-12-23T11:36:17.766Z,11.75
2018-12-23T11:38:45.263Z,6.85
2018-12-23T11:41:12.712Z,5.45
2018-12-23T11:43:40.193Z,9.53
2018-12-23T11:46:07.734Z,9.35
2018-12-23T11:48:35.228Z,5.72
2018-12-23T11:51:02.697Z,7.40
2018-12-23T11:53:30.144Z,8.60
2018-12-23T11:55:57.595Z,5.42
2018-12-23T11:58:25.064Z,9.60
2018-12-23T12:00:52.511Z,6.92
2018-12-23T12:03:19.985Z,11.00
2018-12-23T12:05:47.424Z,6.17
2018-12-23T12:08:14.884Z,5.75
2018-12-23T12:10:42.335Z,3.35
2018-12-23T12:13:09.814Z,5.28
2018-12-23T12:15:37.268Z,5.42
2018-12-23T12:18:04.774Z,12.03
2018-12-23T12:20:32.247Z,6.25
2018-12-23T12:22:59.701Z,4.20
2018-12-23T12:25:27.191Z,7.00
2018-12-23T12:27:54.632Z,7.37
2018-12-23T12:30:22.140Z,3.75
2018-12-23T12:32:49.693Z,3.22
2018-12-23T12:35:17.207Z,8.38
2018-12-23T12:37:44.650Z,3.25
2018-12-23T12:40:12.091Z,5.72
2018-12-23T12:42:39.660Z,4.78
2018-12-23T12:45:07.145Z,6.37
2018-12-23T12:47:34.621Z,6.45
2018-12-23T12:50:02.092Z,5.00
2018-12-23T12:52:29.533Z,7.72
2018-12-23T12:54:57.048Z,5.08
2018-12-23T12:57:24.532Z,4.17
2018-12-23T12:59:51.976Z,11.33
2018-12-23T13:02:19.466Z,6.70
2018-12-23T13:04:47.009Z,9.15
2018-12-23T13:07:14.481Z,5.75
2018-12-23T13:09:41.928Z,4.60
2018-12-23T13:12:09.365Z,7.20
2018-12-23T13:14:36.829Z,4.78
2018-12-23T13:17:04.348Z,5.60
2018-12-23T13:19:31.836Z,8.98
2018-12-23T13:21:59.312Z,4.50
2018-12-23T13:24:26.780Z,12.53
2018-12-23T13:26:54.446Z,6.67
2018-12-23T13:29:21.884Z,3.95
2018-12-23T13:31:49.331Z,4.28
2018-12-23T13:34:16.772Z,5.12
2018-12-23T13:36:44.274Z,5.37
2018-12-23T13:39:11.727Z,4.55
2018-12-23T13:41:43.935Z,4.50
2018-12-23T13:44:20.958Z,5.30
2018-12-23T13:51:17.705Z,4.10
2018-12-23T13:53:54.919Z,4.03
2018-12-23T13:56:38.565Z,4.60
2018-12-23T13:59:15.886Z,5.03
2018-12-23T14:02:04.018Z,2.60
2018-12-23T14:04:50.908Z,3.90
2018-12-23T14:07:39.528Z,3.60
2018-12-23T14:10:25.865Z,2.87
2018-12-23T14:12:54.370Z,4.03
2018-12-23T14:15:22.935Z,4.25
2018-12-23T14:17:51.495Z,1.80
2018-12-23T14:20:20.065Z,3.35
2018-12-23T14:22:48.589Z,4.95
2018-12-23T14:25:17.098Z,6.70
2018-12-23T14:27:45.592Z,4.85
2018-12-23T14:30:14.141Z,4.15
2018-12-23T14:32:42.662Z,4.40
2018-12-23T14:35:11.444Z,11.80
2018-12-23T14:37:39.976Z,4.20
2018-12-23T14:40:08.531Z,2.52
2018-12-23T14:42:37.039Z,6.60
2018-12-23T14:45:05.830Z,7.85
2018-12-23T14:47:34.331Z,4.85
2018-12-23T14:50:03.233Z,7.00
2018-12-23T14:52:31.738Z,3.72
2018-12-23T14:55:00.659Z,3.27
2018-12-23T14:57:30.757Z,5.95
2018-12-23T14:59:59.495Z,5.00
2018-12-23T15:02:28.029Z,3.60
2018-12-23T15:04:56.929Z,2.83
2018-12-23T15:07:25.510Z,3.60
2018-12-23T15:09:54.013Z,5.83
2018-12-23T15:12:22.565Z,6.87
2018-12-23T15:14:51.465Z,6.47
2018-12-23T15:17:19.981Z,3.80
2018-12-23T15:19:48.487Z,3.33
2018-12-23T15:22:17.015Z,4.08
2018-12-23T15:24:45.530Z,2.83
2018-12-23T15:27:14.149Z,3.92
2018-12-23T15:29:42.649Z,4.22
2018-12-23T15:32:11.162Z,5.25
2018-12-23T15:34:39.664Z,6.67
2018-12-23T15:37:08.197Z,8.23
2018-12-23T15:39:42.579Z,3.05
2018-12-23T15:42:06.987Z,3.58
2018-12-23T15:44:35.523Z,5.58
2018-12-23T15:47:04.207Z,3.37
2018-12-23T15:49:32.749Z,3.42
2018-12-23T15:52:01.261Z,3.17
2018-12-23T15:54:29.761Z,4.58
2018-12-23T15:56:58.277Z,5.50
2018-12-23T15:59:26.820Z,4.62
2018-12-23T16:01:55.336Z,3.12
2018-12-23T16:04:23.837Z,2.85
2018-12-23T16:06:52.390Z,3.20
2018-12-23T16:09:20.886Z,3.75
2018-12-23T16:11:49.497Z,2.92
2018-12-23T16:14:18.025Z,3.22
2018-12-23T16:16:46.536Z,2.90
2018-12-23T16:19:15.051Z,2.35
2018-12-23T16:21:43.557Z,4.22
2018-12-23T16:24:12.064Z,2.65
2018-12-23T16:26:40.572Z,2.75
2018-12-23T16:29:09.114Z,4.85
2018-12-23T16:31:37.668Z,4.05
2018-12-23T16:34:06.295Z,4.05
2018-12-23T16:36:34.860Z,2.47
2018-12-23T16:39:04.954Z,3.77
2018-12-23T16:41:33.491Z,2.67
2018-12-23T16:44:02.395Z,2.80
2018-12-23T16:46:30.919Z,35.70
2018-12-23T16:48:59.458Z,50.40
2018-12-23T16:51:27.982Z,51.50
2018-12-23T16:53:56.522Z,7.80
2018-12-23T16:56:25.067Z,21.48
2018-12-23T16:58:53.907Z,6.97
2018-12-23T17:01:22.402Z,2.25
2018-12-23T17:03:50.947Z,3.37
2018-12-23T17:06:19.445Z,2.30
2018-12-23T17:08:47.976Z,2.50
2018-12-23T17:11:16.505Z,2.92
2018-12-23T17:13:45.179Z,1.70
2018-12-23T17:16:13.677Z,1.90
2018-12-23T17:18:42.207Z,1.60
2018-12-23T17:21:10.871Z,2.45
2018-12-23T17:23:39.368Z,1.85
2018-12-23T17:26:07.955Z,1.60
2018-12-23T17:28:36.489Z,2.10
2018-12-23T17:31:05.016Z,1.50
2018-12-23T17:33:33.553Z,1.80
2018-12-23T17:36:02.049Z,1.30
2018-12-23T17:38:30.918Z,1.80
2018-12-23T17:40:59.460Z,4.83
2018-12-23T17:43:28.500Z,1.40
2018-12-23T17:45:57.021Z,3.40
2018-12-23T17:48:25.918Z,1.50
2018-12-23T17:50:54.778Z,1.70
2018-12-23T17:53:23.272Z,1.30
2018-12-23T17:55:51.798Z,1.32
2018-12-23T17:58:20.315Z,2.40
2018-12-23T18:00:49.117Z,1.40
2018-12-23T18:03:17.622Z,1.98
2018-12-23T18:05:46.519Z,1.27
2018-12-23T18:08:15.382Z,2.45
2018-12-23T18:10:43.912Z,1.77
2018-12-23T18:13:12.456Z,1.92
2018-12-23T18:15:41.091Z,1.50
2018-12-23T18:18:09.626Z,1.87
2018-12-23T18:20:38.401Z,1.92
2018-12-23T18:23:07.185Z,1.50
2018-12-23T18:25:35.722Z,1.90
2018-12-23T18:28:04.230Z,2.67
2018-12-23T18:30:32.850Z,2.12
2018-12-23T18:33:01.369Z,2.87
2018-12-23T18:35:30.233Z,2.60
2018-12-23T18:37:58.761Z,1.67
2018-12-23T18:40:33.331Z,2.22
2018-12-23T18:42:57.567Z,1.92
2018-12-23T18:45:26.096Z,1.70
2018-12-23T18:47:54.638Z,2.00
2018-12-23T18:50:23.158Z,2.50
2018-12-23T18:52:51.692Z,1.57
2018-12-23T18:55:20.201Z,2.08
2018-12-23T18:57:48.724Z,1.70
2018-12-23T19:00:17.242Z,1.50
2018-12-23T19:02:45.784Z,2.12
2018-12-23T19:05:14.289Z,3.35
2018-12-23T19:07:42.870Z,1.60
2018-12-23T19:10:23.725Z,1.50
2018-12-23T19:13:14.945Z,1.82
2018-12-23T19:16:14.081Z,2.00
2018-12-23T19:18:51.921Z,1.60
2018-12-23T19:21:46.105Z,2.83
2018-12-23T19:24:17.750Z,1.95
2018-12-23T19:26:58.415Z,2.52
2018-12-23T19:29:52.363Z,1.80
2018-12-23T19:32:32.841Z,2.40
2018-12-23T19:35:22.800Z,2.75
2018-12-23T19:37:57.249Z,3.20
2018-12-23T19:40:50.321Z,2.33
2018-12-23T19:43:41.894Z,2.85
2018-12-23T19:46:48.282Z,2.58
2018-12-23T19:49:36.511Z,3.17
2018-12-23T19:52:40.080Z,2.55
2018-12-23T19:55:17.507Z,1.60
2018-12-23T19:57:58.624Z,3.02
2018-12-23T20:00:48.570Z,1.55
2018-12-23T20:03:36.709Z,1.70
2018-12-23T20:06:14.518Z,1.70
2018-12-23T20:09:10.741Z,1.57
2018-12-23T20:12:04.505Z,1.60
2018-12-23T20:14:39.038Z,1.47
2018-12-23T20:17:34.710Z,1.50
2018-12-23T20:20:12.158Z,2.08
2018-12-23T20:22:43.749Z,1.62
2018-12-23T20:25:15.369Z,2.10
2018-12-23T20:28:23.617Z,2.00
2018-12-23T20:31:04.020Z,1.55
2018-12-23T20:33:41.154Z,1.20
2018-12-23T20:36:29.227Z,1.47
2018-12-23T20:39:17.372Z,2.20
2018-12-23T20:42:11.970Z,2.12
2018-12-23T20:44:55.570Z,1.20
2018-12-23T20:47:52.910Z,1.55
2018-12-23T20:50:39.525Z,1.45
2018-12-23T20:53:14.341Z,1.40
2018-12-23T20:56:05.711Z,1.45
2018-12-23T20:58:48.932Z,1.50
2018-12-23T21:01:35.486Z,3.55
2018-12-23T21:04:07.089Z,1.90
2018-12-23T21:06:50.761Z,2.47
2018-12-23T21:09:37.277Z,1.42
2018-12-23T21:12:11.809Z,2.22
2018-12-23T21:15:01.202Z,1.45
2018-12-23T21:17:38.685Z,1.50
2018-12-23T21:20:35.857Z,1.37
2018-12-23T21:23:13.173Z,1.40
2018-12-23T21:25:50.421Z,1.95
2018-12-23T21:28:22.148Z,1.50
2018-12-23T21:30:56.652Z,1.45
2018-12-23T21:34:01.734Z,1.07
2018-12-23T21:36:38.373Z,1.40
2018-12-23T21:39:21.809Z,2.25
2018-12-23T21:41:59.109Z,2.42
2018-12-23T21:44:47.113Z,1.75
2018-12-23T21:47:36.873Z,0.80
2018-12-23T21:50:26.728Z,2.35
2018-12-23T21:53:25.466Z,1.60
2018-12-23T21:56:02.858Z,1.50
2018-12-23T21:59:04.684Z,1.20
2018-12-23T22:02:03.129Z,1.30
2018-12-23T22:04:43.309Z,1.90
2018-12-23T22:07:18.159Z,1.45
2018-12-23T22:09:58.027Z,2.80
2018-12-23T22:12:32.532Z,1.62
2018-12-23T22:15:01.042Z,1.07
2018-12-23T22:17:29.571Z,1.60
2018-12-23T22:19:58.117Z,1.42
2018-12-23T22:22:26.628Z,1.85
2018-12-23T22:24:55.188Z,3.20
2018-12-23T22:27:23.775Z,1.50
2018-12-23T22:29:52.320Z,1.60
2018-12-23T22:32:21.140Z,1.20
2018-12-23T22:34:49.658Z,1.55
2018-12-23T22:37:18.225Z,0.95
2018-12-23T22:39:46.715Z,1.37
2018-12-23T22:42:15.278Z,1.67
2018-12-23T22:44:44.159Z,2.80
2018-12-23T22:47:12.767Z,1.15
2018-12-23T22:49:41.644Z,1.02
2018-12-23T22:52:10.530Z,1.10
2018-12-23T22:54:39.411Z,1.70
2018-12-23T22:57:07.955Z,1.45
2018-12-23T22:59:36.468Z,1.60
2018-12-23T23:02:05.031Z,1.22
2018-12-23T23:04:33.550Z,0.95
2018-12-23T23:07:02.534Z,1.17
2018-12-23T23:09:31.053Z,0.70
2018-12-23T23:11:59.581Z,1.10
2018-12-23T23:14:28.122Z,1.07
2018-12-23T23:16:56.986Z,0.93
2018-12-23T23:19:25.532Z,1.40
2018-12-23T23:21:54.073Z,1.00
2018-12-23T23:24:22.576Z,1.10
2018-12-23T23:26:51.106Z,0.60
2018-12-23T23:29:19.636Z,0.82
2018-12-23T23:31:48.148Z,0.90
2018-12-23T23:34:16.786Z,1.00
2018-12-23T23:36:45.330Z,0.70
2018-12-23T23:39:13.866Z,0.90
2018-12-23T23:41:42.397Z,0.95
2018-12-23T23:44:10.921Z,0.82
2018-12-23T23:46:39.437Z,0.90
2018-12-23T23:49:08.245Z,1.22
2018-12-23T23:51:36.749Z,0.65
2018-12-23T23:54:05.650Z,0.65
2018-12-23T23:56:34.221Z,0.60
2018-12-23T23:59:02.742Z,0.70
